Ferry Katsuragi — JI3611 — position and weather

sailwx.info

Track history (hours):
 
Tides and Currents Weather Stations Pressure Air Temp Water Temp Dewpoint Dewpoint Depression Visibility Wind Speed Wind Dir Waves Ship Positions

Ferry Katsuragi

Last reported at 2014-Sep-01 11:27 UTC. Time now 2014-Sep-01 13:47 UTC.
Position N 34°07' E 134°48'.

Length 108 m; draft 4 m.

Type: Passenger vessel. MMSI: 431301245.

Date/timePositionNaut miles runAvg speedWind from/ knotsBaromVisibWave heightAir tempDewpointWater temp
2014-Sep-01 11:27N 34°07' E 134°48'1314.4
2014-Sep-01 10:33N 34°11' E 135°03'5 5.1
2014-Sep-01 09:33N 34°13' E 135°08'19 5.5
2014-Sep-01 06:04N 34°07' E 134°46'814.2
2014-Sep-01 05:30N 34°10' E 134°55'1112.2
2014-Sep-01 04:33N 34°13' E 135°09'6 6.1
2014-Sep-01 03:33N 34°12' E 135°01'6 2.0
2014-Sep-01 00:20N 34°08' E 134°55'1215.2
2014-Aug-31 23:33N 34°13' E 135°08'2 1.6
2014-Aug-31 22:34N 34°13' E 135°06'19 5.4
2014-Aug-31 19:08N 34°06' E 134°45'1014.3
2014-Aug-31 18:26N 34°09' E 134°56'1112.2
2014-Aug-31 17:34N 34°13' E 135°09'0 0.0
2014-Aug-31 16:34N 34°13' E 135°09'0 0.0
2014-Aug-31 15:34N 34°13' E 135°09'6 5.7
2014-Aug-31 14:33N 34°12' E 135°02'14 4.5
2014-Aug-31 11:32N 34°07' E 134°47'1414.6
2014-Aug-31 10:33N 34°11' E 135°03'5 5.0
2014-Aug-31 09:34N 34°13' E 135°08'20 5.9
2014-Aug-31 06:06N 34°05' E 134°46'914.5
2014-Aug-31 05:27N 34°09' E 134°56'1112.4
2014-Aug-31 04:33N 34°13' E 135°09'6 6.0
2014-Aug-31 03:33N 34°11' E 135°02'5 1.6
2014-Aug-31 00:17N 34°09' E 134°56'1114.8
2014-Aug-30 23:33N 34°13' E 135°08'2 1.5
2014-Aug-30 22:34N 34°13' E 135°06'19 5.4
2014-Aug-30 19:06N 34°06' E 134°45'914.6
2014-Aug-30 18:31N 34°09' E 134°55'1212.7
2014-Aug-30 17:34N 34°13' E 135°09'0 0.0
2014-Aug-30 16:34N 34°13' E 135°09'0 0.0
2014-Aug-30 15:34N 34°13' E 135°09'5 4.8
2014-Aug-30 14:34N 34°12' E 135°03'15 5.0
2014-Aug-30 11:32N 34°06' E 134°46'1514.9
2014-Aug-30 10:33N 34°11' E 135°03'5 5.1
2014-Aug-30 09:34N 34°13' E 135°08'23 7.0
2014-Aug-30 06:16N 34°04' E 134°43'1214.7
2014-Aug-30 05:27N 34°09' E 134°56'1112.5
2014-Aug-30 04:33N 34°13' E 135°09'6 5.9
2014-Aug-30 03:33N 34°12' E 135°02'2 0.6
2014-Aug-30 00:04N 34°11' E 134°59'714.5
2014-Aug-29 23:34N 34°13' E 135°08'3 2.9
2014-Aug-29 22:34N 34°12' E 135°05'1514.7
2014-Aug-29 21:33N 34°06' E 134°48'2 1.0
2014-Aug-29 19:06N 34°06' E 134°45'814.5
2014-Aug-29 18:33N 34°08' E 134°54'1312.7
2014-Aug-29 17:34N 34°13' E 135°09'0 0.0
2014-Aug-29 16:34N 34°13' E 135°09'0 0.0
2014-Aug-29 15:34N 34°13' E 135°09'6 5.7
2014-Aug-29 14:33N 34°11' E 135°02'14 4.6
2014-Aug-29 11:33N 34°07' E 134°46'1514.8
2014-Aug-29 10:33N 34°12' E 135°03'5 4.6
2014-Aug-29 09:33N 34°13' E 135°08'20 5.7
2014-Aug-29 06:03N 34°06' E 134°46'814.8
2014-Aug-29 05:31N 34°08' E 134°55'1213.0
2014-Aug-29 04:33N 34°13' E 135°09'8 7.4
2014-Aug-29 03:29N 34°11' E 134°59'4 1.2
2014-Aug-29 00:17N 34°09' E 134°55'1115.4
2014-Aug-28 23:33N 34°13' E 135°08'1 1.4
2014-Aug-28 22:34N 34°13' E 135°06'19 5.5
2014-Aug-28 19:06N 34°05' E 134°45'915.0
2014-Aug-28 18:31N 34°07' E 134°55'1212.7
2014-Aug-28 17:33N 34°13' E 135°09'0 0.0
2014-Aug-28 16:33N 34°13' E 135°09'0 0.0
2014-Aug-28 15:33N 34°13' E 135°09'6 5.9
2014-Aug-28 14:33N 34°11' E 135°02'14 4.7
2014-Aug-28 11:33N 34°06' E 134°46'1515.1
2014-Aug-28 10:33N 34°11' E 135°03'5 4.8
2014-Aug-28 09:34N 34°13' E 135°08'21 6.1
2014-Aug-28 06:08N 34°05' E 134°45'1114.8
2014-Aug-28 05:25N 34°09' E 134°57'1012.2
2014-Aug-28 04:33N 34°13' E 135°09'15 3.8
2014-Aug-28 00:33N 34°08' E 134°51'1515.4
2014-Aug-27 23:34N 34°13' E 135°08'3 2.5
2014-Aug-27 22:34N 34°13' E 135°05'7 1.7
2014-Aug-27 18:23N 34°11' E 134°57'1011.7
2014-Aug-27 17:33N 34°13' E 135°09'0 0.0
2014-Aug-27 16:33N 34°13' E 135°09'0 0.0
2014-Aug-27 15:33N 34°13' E 135°09'6 5.9
2014-Aug-27 14:32N 34°11' E 135°02'13 4.3
2014-Aug-27 11:32N 34°07' E 134°47'1413.9
2014-Aug-27 10:33N 34°12' E 135°02'5 5.0
2014-Aug-27 09:34N 34°13' E 135°08'20 5.9
2014-Aug-27 06:06N 34°05' E 134°46'914.7
2014-Aug-27 05:29N 34°09' E 134°56'1212.5
2014-Aug-27 04:33N 34°13' E 135°09'7 6.9
2014-Aug-27 03:34N 34°11' E 135°01'9 3.0
2014-Aug-27 00:33N 34°08' E 134°50'1615.8
2014-Aug-26 23:33N 34°13' E 135°08'2 2.3
2014-Aug-26 22:33N 34°13' E 135°05'18 5.3
2014-Aug-26 19:07N 34°05' E 134°45'1014.8
2014-Aug-26 18:26N 34°09' E 134°56'1112.5
2014-Aug-26 17:33N 34°13' E 135°09'0 0.0
2014-Aug-26 16:34N 34°13' E 135°09'0 0.0
2014-Aug-26 15:34N 34°13' E 135°09'17 4.2
2014-Aug-26 11:25N 34°07' E 134°49'1213.8
2014-Aug-26 10:33N 34°12' E 135°03'5 5.1
2014-Aug-26 09:33N 34°13' E 135°08'21 6.3
2014-Aug-26 06:12N 34°05' E 134°45'1214.6
2014-Aug-26 05:25N 34°10' E 134°58'1011.4
2014-Aug-26 04:33N 34°13' E 135°09'7 6.8
2014-Aug-26 03:33N 34°11' E 135°01'9 3.0
2014-Aug-26 00:33N 34°08' E 134°51'1515.3
2014-Aug-25 23:33N 34°13' E 135°08'2 1.5
2014-Aug-25 22:34N 34°13' E 135°06'18 5.3
2014-Aug-25 19:07N 34°06' E 134°46'1214.5
2014-Aug-25 18:18N 34°12' E 134°58'811.3
2014-Aug-25 17:33N 34°13' E 135°09'0 0.0
2014-Aug-25 16:33N 34°13' E 135°09'0 0.0
2014-Aug-25 15:33N 34°13' E 135°09'5 4.7
2014-Aug-25 14:33N 34°12' E 135°03'15 5.0
2014-Aug-25 11:33N 34°06' E 134°46'1515.1
2014-Aug-25 10:33N 34°12' E 135°03'5 4.6
2014-Aug-25 09:33N 34°13' E 135°08'20 5.8
2014-Aug-25 06:04N 34°06' E 134°46'915.0
2014-Aug-25 05:27N 34°09' E 134°56'1112.4
2014-Aug-25 04:33N 34°13' E 135°09'7 6.5
2014-Aug-25 03:33N 34°12' E 135°01'1 0.3
2014-Aug-25 00:04N 34°12' E 134°59'714.5
2014-Aug-24 23:33N 34°13' E 135°08'3 2.6
2014-Aug-24 22:33N 34°13' E 135°05'19 5.8
2014-Aug-24 19:12N 34°05' E 134°44'914.5
2014-Aug-24 18:33N 34°09' E 134°54'1312.7
2014-Aug-24 17:33N 34°13' E 135°09'0 0.0
2014-Aug-24 16:33N 34°13' E 135°09'0 0.0
2014-Aug-24 15:33N 34°13' E 135°09'6 5.5
2014-Aug-24 14:33N 34°11' E 135°02'14 4.7
2014-Aug-24 11:33N 34°06' E 134°46'1414.6
2014-Aug-24 10:33N 34°12' E 135°02'5 5.4
2014-Aug-24 09:34N 34°13' E 135°09'1615.0
2014-Aug-24 08:29N 34°07' E 134°50'4 1.7
2014-Aug-24 06:04N 34°06' E 134°46'1114.7
2014-Aug-24 05:22N 34°10' E 134°57'1011.9
2014-Aug-24 04:33N 34°13' E 135°09'11 2.5
2014-Aug-24 00:14N 34°10' E 134°56'1015.1
2014-Aug-23 23:33N 34°13' E 135°08'3 2.6
2014-Aug-23 22:34N 34°12' E 135°05'17 4.9
2014-Aug-23 19:05N 34°06' E 134°46'14 0.9
2014-Aug-23 03:33N 34°11' E 135°01'9 3.0
2014-Aug-23 00:33N 34°08' E 134°51'1515.4
2014-Aug-22 23:33N 34°13' E 135°08'2 1.7
2014-Aug-22 22:33N 34°13' E 135°06'20 6.0
2014-Aug-22 19:15N 34°05' E 134°44'1214.4
2014-Aug-22 18:27N 34°09' E 134°57'1111.8
2014-Aug-22 17:33N 34°13' E 135°09'0 0.0
2014-Aug-22 16:33N 34°13' E 135°09'0 0.0
2014-Aug-22 15:33N 34°13' E 135°09'5 4.5
2014-Aug-22 14:34N 34°12' E 135°03'16 5.2
2014-Aug-22 11:33N 34°06' E 134°46'  
Track history (hours):
 
Tides and Currents Weather Stations Pressure Air Temp Water Temp Dewpoint Dewpoint Depression Visibility Wind Speed Wind Dir Waves Ship Positions

Ferry Katsuragi

Last reported at 2014-Sep-01 11:27 UTC. Time now 2014-Sep-01 13:47 UTC.
Position N 34°07' E 134°48'.

Length 108 m; draft 4 m.

Type: Passenger vessel. MMSI: 431301245.

Date/timePositionNaut miles runAvg speedWind from/ knotsBaromVisibWave heightAir tempDewpointWater temp
2014-Sep-01 11:27N 34°07' E 134°48'1314.4
2014-Sep-01 10:33N 34°11' E 135°03'5 5.1
2014-Sep-01 09:33N 34°13' E 135°08'19 5.5
2014-Sep-01 06:04N 34°07' E 134°46'814.2
2014-Sep-01 05:30N 34°10' E 134°55'1112.2
2014-Sep-01 04:33N 34°13' E 135°09'6 6.1
2014-Sep-01 03:33N 34°12' E 135°01'6 2.0
2014-Sep-01 00:20N 34°08' E 134°55'1215.2
2014-Aug-31 23:33N 34°13' E 135°08'2 1.6
2014-Aug-31 22:34N 34°13' E 135°06'19 5.4
2014-Aug-31 19:08N 34°06' E 134°45'1014.3
2014-Aug-31 18:26N 34°09' E 134°56'1112.2
2014-Aug-31 17:34N 34°13' E 135°09'0 0.0
2014-Aug-31 16:34N 34°13' E 135°09'0 0.0
2014-Aug-31 15:34N 34°13' E 135°09'6 5.7
2014-Aug-31 14:33N 34°12' E 135°02'14 4.5
2014-Aug-31 11:32N 34°07' E 134°47'1414.6
2014-Aug-31 10:33N 34°11' E 135°03'5 5.0
2014-Aug-31 09:34N 34°13' E 135°08'20 5.9
2014-Aug-31 06:06N 34°05' E 134°46'914.5
2014-Aug-31 05:27N 34°09' E 134°56'1112.4
2014-Aug-31 04:33N 34°13' E 135°09'6 6.0
2014-Aug-31 03:33N 34°11' E 135°02'5 1.6
2014-Aug-31 00:17N 34°09' E 134°56'1114.8
2014-Aug-30 23:33N 34°13' E 135°08'2 1.5
2014-Aug-30 22:34N 34°13' E 135°06'19 5.4
2014-Aug-30 19:06N 34°06' E 134°45'914.6
2014-Aug-30 18:31N 34°09' E 134°55'1212.7
2014-Aug-30 17:34N 34°13' E 135°09'0 0.0
2014-Aug-30 16:34N 34°13' E 135°09'0 0.0
2014-Aug-30 15:34N 34°13' E 135°09'5 4.8
2014-Aug-30 14:34N 34°12' E 135°03'15 5.0
2014-Aug-30 11:32N 34°06' E 134°46'1514.9
2014-Aug-30 10:33N 34°11' E 135°03'5 5.1
2014-Aug-30 09:34N 34°13' E 135°08'23 7.0
2014-Aug-30 06:16N 34°04' E 134°43'1214.7
2014-Aug-30 05:27N 34°09' E 134°56'1112.5
2014-Aug-30 04:33N 34°13' E 135°09'6 5.9
2014-Aug-30 03:33N 34°12' E 135°02'2 0.6
2014-Aug-30 00:04N 34°11' E 134°59'714.5
2014-Aug-29 23:34N 34°13' E 135°08'3 2.9
2014-Aug-29 22:34N 34°12' E 135°05'1514.7
2014-Aug-29 21:33N 34°06' E 134°48'2 1.0
2014-Aug-29 19:06N 34°06' E 134°45'814.5
2014-Aug-29 18:33N 34°08' E 134°54'1312.7
2014-Aug-29 17:34N 34°13' E 135°09'0 0.0
2014-Aug-29 16:34N 34°13' E 135°09'0 0.0
2014-Aug-29 15:34N 34°13' E 135°09'6 5.7
2014-Aug-29 14:33N 34°11' E 135°02'14 4.6
2014-Aug-29 11:33N 34°07' E 134°46'1514.8
2014-Aug-29 10:33N 34°12' E 135°03'5 4.6
2014-Aug-29 09:33N 34°13' E 135°08'20 5.7
2014-Aug-29 06:03N 34°06' E 134°46'814.8
2014-Aug-29 05:31N 34°08' E 134°55'1213.0
2014-Aug-29 04:33N 34°13' E 135°09'8 7.4
2014-Aug-29 03:29N 34°11' E 134°59'4 1.2
2014-Aug-29 00:17N 34°09' E 134°55'1115.4
2014-Aug-28 23:33N 34°13' E 135°08'1 1.4
2014-Aug-28 22:34N 34°13' E 135°06'19 5.5
2014-Aug-28 19:06N 34°05' E 134°45'915.0
2014-Aug-28 18:31N 34°07' E 134°55'1212.7
2014-Aug-28 17:33N 34°13' E 135°09'0 0.0
2014-Aug-28 16:33N 34°13' E 135°09'0 0.0
2014-Aug-28 15:33N 34°13' E 135°09'6 5.9
2014-Aug-28 14:33N 34°11' E 135°02'14 4.7
2014-Aug-28 11:33N 34°06' E 134°46'1515.1
2014-Aug-28 10:33N 34°11' E 135°03'5 4.8
2014-Aug-28 09:34N 34°13' E 135°08'21 6.1
2014-Aug-28 06:08N 34°05' E 134°45'1114.8
2014-Aug-28 05:25N 34°09' E 134°57'1012.2
2014-Aug-28 04:33N 34°13' E 135°09'15 3.8
2014-Aug-28 00:33N 34°08' E 134°51'1515.4
2014-Aug-27 23:34N 34°13' E 135°08'3 2.5
2014-Aug-27 22:34N 34°13' E 135°05'7 1.7
2014-Aug-27 18:23N 34°11' E 134°57'1011.7
2014-Aug-27 17:33N 34°13' E 135°09'0 0.0
2014-Aug-27 16:33N 34°13' E 135°09'0 0.0
2014-Aug-27 15:33N 34°13' E 135°09'6 5.9
2014-Aug-27 14:32N 34°11' E 135°02'13 4.3
2014-Aug-27 11:32N 34°07' E 134°47'1413.9
2014-Aug-27 10:33N 34°12' E 135°02'5 5.0
2014-Aug-27 09:34N 34°13' E 135°08'20 5.9
2014-Aug-27 06:06N 34°05' E 134°46'914.7
2014-Aug-27 05:29N 34°09' E 134°56'1212.5
2014-Aug-27 04:33N 34°13' E 135°09'7 6.9
2014-Aug-27 03:34N 34°11' E 135°01'9 3.0
2014-Aug-27 00:33N 34°08' E 134°50'1615.8
2014-Aug-26 23:33N 34°13' E 135°08'2 2.3
2014-Aug-26 22:33N 34°13' E 135°05'18 5.3
2014-Aug-26 19:07N 34°05' E 134°45'1014.8
2014-Aug-26 18:26N 34°09' E 134°56'1112.5
2014-Aug-26 17:33N 34°13' E 135°09'0 0.0
2014-Aug-26 16:34N 34°13' E 135°09'0 0.0
2014-Aug-26 15:34N 34°13' E 135°09'17 4.2
2014-Aug-26 11:25N 34°07' E 134°49'1213.8
2014-Aug-26 10:33N 34°12' E 135°03'5 5.1
2014-Aug-26 09:33N 34°13' E 135°08'21 6.3
2014-Aug-26 06:12N 34°05' E 134°45'1214.6
2014-Aug-26 05:25N 34°10' E 134°58'1011.4
2014-Aug-26 04:33N 34°13' E 135°09'7 6.8
2014-Aug-26 03:33N 34°11' E 135°01'9 3.0
2014-Aug-26 00:33N 34°08' E 134°51'1515.3
2014-Aug-25 23:33N 34°13' E 135°08'2 1.5
2014-Aug-25 22:34N 34°13' E 135°06'18 5.3
2014-Aug-25 19:07N 34°06' E 134°46'1214.5
2014-Aug-25 18:18N 34°12' E 134°58'811.3
2014-Aug-25 17:33N 34°13' E 135°09'0 0.0
2014-Aug-25 16:33N 34°13' E 135°09'0 0.0
2014-Aug-25 15:33N 34°13' E 135°09'5 4.7
2014-Aug-25 14:33N 34°12' E 135°03'15 5.0
2014-Aug-25 11:33N 34°06' E 134°46'1515.1
2014-Aug-25 10:33N 34°12' E 135°03'5 4.6
2014-Aug-25 09:33N 34°13' E 135°08'20 5.8
2014-Aug-25 06:04N 34°06' E 134°46'915.0
2014-Aug-25 05:27N 34°09' E 134°56'1112.4
2014-Aug-25 04:33N 34°13' E 135°09'7 6.5
2014-Aug-25 03:33N 34°12' E 135°01'1 0.3
2014-Aug-25 00:04N 34°12' E 134°59'714.5
2014-Aug-24 23:33N 34°13' E 135°08'3 2.6
2014-Aug-24 22:33N 34°13' E 135°05'19 5.8
2014-Aug-24 19:12N 34°05' E 134°44'914.5
2014-Aug-24 18:33N 34°09' E 134°54'1312.7
2014-Aug-24 17:33N 34°13' E 135°09'0 0.0
2014-Aug-24 16:33N 34°13' E 135°09'0 0.0
2014-Aug-24 15:33N 34°13' E 135°09'6 5.5
2014-Aug-24 14:33N 34°11' E 135°02'14 4.7
2014-Aug-24 11:33N 34°06' E 134°46'1414.6
2014-Aug-24 10:33N 34°12' E 135°02'5 5.4
2014-Aug-24 09:34N 34°13' E 135°09'1615.0
2014-Aug-24 08:29N 34°07' E 134°50'4 1.7
2014-Aug-24 06:04N 34°06' E 134°46'1114.7
2014-Aug-24 05:22N 34°10' E 134°57'1011.9
2014-Aug-24 04:33N 34°13' E 135°09'11 2.5
2014-Aug-24 00:14N 34°10' E 134°56'1015.1
2014-Aug-23 23:33N 34°13' E 135°08'3 2.6
2014-Aug-23 22:34N 34°12' E 135°05'17 4.9
2014-Aug-23 19:05N 34°06' E 134°46'14 0.9
2014-Aug-23 03:33N 34°11' E 135°01'9 3.0
2014-Aug-23 00:33N 34°08' E 134°51'1515.4
2014-Aug-22 23:33N 34°13' E 135°08'2 1.7
2014-Aug-22 22:33N 34°13' E 135°06'20 6.0
2014-Aug-22 19:15N 34°05' E 134°44'1214.4
2014-Aug-22 18:27N 34°09' E 134°57'1111.8
2014-Aug-22 17:33N 34°13' E 135°09'0 0.0
2014-Aug-22 16:33N 34°13' E 135°09'0 0.0
2014-Aug-22 15:33N 34°13' E 135°09'5 4.5
2014-Aug-22 14:34N 34°12' E 135°03'16 5.2
2014-Aug-22 11:33N 34°06' E 134°46'  

Dump ship's entire track history